Time;durP1;ratioP1;P1;durP2;ratioP2;P2;SDS_P1;SDS_P2;PMS_P1;PMS_P2;Temp;Humidity;BMP_temperature;BMP_pressure;BME280_temperature;BME280_humidity;BME280_pressure;Samples;Min_cycle;Max_cycle;Signal;HPM_P1;HPM_P2
2024/02/19 00:01:50;;;;;;;8.27;2.40;;;;;;;9.54;100.00;101964.03;4989687;28;20058;-62
2024/02/19 00:04:18;;;;;;;10.68;1.92;;;;;;;9.55;100.00;101976.75;4988887;28;20078;-62
2024/02/19 00:06:46;;;;;;;13.50;2.42;;;;;;;9.55;100.00;101972.06;4989236;28;20082;-62
2024/02/19 00:09:13;;;;;;;9.65;2.08;;;;;;;9.58;100.00;101970.59;4992473;28;20045;-63
2024/02/19 00:11:40;;;;;;;11.45;2.25;;;;;;;9.59;100.00;101972.22;4990540;28;20046;-63
2024/02/19 00:14:08;;;;;;;10.68;2.28;;;;;;;9.60;100.00;101965.59;4988253;28;20055;-62
2024/02/19 00:16:35;;;;;;;14.80;2.25;;;;;;;9.60;100.00;101971.13;4984247;28;20497;-62
2024/02/19 00:19:07;;;;;;;9.57;2.28;;;;;;;9.62;100.00;101949.50;4990907;28;20057;-63
2024/02/19 00:21:35;;;;;;;14.75;2.08;;;;;;;9.62;100.00;101955.03;4988760;28;20054;-63
2024/02/19 00:24:03;;;;;;;7.65;2.08;;;;;;;9.65;100.00;101954.41;4989101;28;20053;-63
2024/02/19 00:26:30;;;;;;;10.27;2.38;;;;;;;9.66;100.00;101933.94;4988723;28;20058;-63
2024/02/19 00:28:58;;;;;;;8.73;2.25;;;;;;;9.67;100.00;101924.50;4988864;28;20053;-63
2024/02/19 00:31:27;;;;;;;13.73;3.10;;;;;;;9.65;100.00;101926.75;4989180;28;20061;-65
2024/02/19 00:33:54;;;;;;;19.98;4.60;;;;;;;9.64;100.00;101942.53;4999389;28;20530;-63
2024/02/19 00:36:22;;;;;;;13.70;2.40;;;;;;;9.65;100.00;101937.81;4986926;28;20057;-63
2024/02/19 00:38:49;;;;;;;14.57;2.95;;;;;;;9.64;100.00;101933.41;4987346;28;20058;-64
2024/02/19 00:41:19;;;;;;;16.73;2.47;;;;;;;9.65;100.00;101933.13;4988013;28;20416;-64
2024/02/19 00:43:46;;;;;;;9.45;2.20;;;;;;;9.65;100.00;101932.28;4976090;28;20072;-64
2024/02/19 00:46:14;;;;;;;8.95;1.90;;;;;;;9.66;100.00;101945.00;4987742;28;20050;-63
2024/02/19 00:48:41;;;;;;;11.15;2.20;;;;;;;9.66;100.00;101953.28;4987243;28;20057;-63
2024/02/19 00:51:09;;;;;;;7.20;2.40;;;;;;;9.67;100.00;101944.69;4988172;28;20054;-63
2024/02/19 00:53:39;;;;;;;11.82;3.00;;;;;;;9.67;100.00;101927.25;4988002;28;20050;-62
2024/02/19 00:56:07;;;;;;;13.15;2.30;;;;;;;9.67;100.00;101936.38;4987401;28;20062;-62
2024/02/19 00:58:34;;;;;;;12.10;2.30;;;;;;;9.66;100.00;101928.41;4987234;28;20050;-62
2024/02/19 01:01:01;;;;;;;13.05;2.88;;;;;;;9.65;100.00;101915.69;4987914;28;20070;-62
2024/02/19 01:03:29;;;;;;;8.93;3.47;;;;;;;9.62;100.00;101894.19;4987163;28;20590;-62
2024/02/19 01:05:56;;;;;;;12.07;4.35;;;;;;;9.62;100.00;101881.19;4987913;28;20046;-62
2024/02/19 01:08:24;;;;;;;11.95;3.55;;;;;;;9.62;100.00;101896.97;4985569;28;20047;-62
2024/02/19 01:10:51;;;;;;;11.38;2.80;;;;;;;9.60;100.00;101896.47;4988212;28;20396;-62
2024/02/19 01:13:18;;;;;;;9.13;2.70;;;;;;;9.62;100.00;101891.44;4987041;28;20554;-62
2024/02/19 01:15:46;;;;;;;13.25;2.40;;;;;;;9.61;100.00;101904.44;4987339;28;20058;-62
2024/02/19 01:18:15;;;;;;;11.77;3.35;;;;;;;9.61;100.00;101898.13;4987744;28;20057;-62
2024/02/19 01:20:43;;;;;;;9.55;2.70;;;;;;;9.63;100.00;101882.03;4987163;28;20054;-63
2024/02/19 01:23:10;;;;;;;10.90;2.85;;;;;;;9.63;100.00;101899.44;4984537;28;20050;-63
2024/02/19 01:25:38;;;;;;;13.32;3.38;;;;;;;9.60;100.00;101905.59;4988198;28;20065;-63
2024/02/19 01:28:06;;;;;;;6.50;1.80;;;;;;;9.58;100.00;101918.09;4987759;28;20050;-62
2024/02/19 01:30:33;;;;;;;14.27;3.15;;;;;;;9.57;100.00;101910.91;4986875;28;20038;-62
2024/02/19 01:33:01;;;;;;;10.07;2.17;;;;;;;9.55;100.00;101918.69;4987668;28;20463;-63
2024/02/19 01:35:29;;;;;;;13.35;2.58;;;;;;;9.54;100.00;101915.09;4969403;28;20050;-62
2024/02/19 01:37:56;;;;;;;16.83;2.75;;;;;;;9.53;100.00;101919.00;4979478;28;20051;-62
2024/02/19 01:40:23;;;;;;;17.95;3.83;;;;;;;9.52;100.00;101924.84;4986768;28;20051;-62
2024/02/19 01:43:01;;;;;;;11.75;2.60;;;;;;;9.49;100.00;101911.63;4986968;28;20046;-62
2024/02/19 01:45:28;;;;;;;11.13;2.97;;;;;;;9.48;100.00;101932.91;4987269;28;20042;-62
2024/02/19 01:47:57;;;;;;;17.48;3.40;;;;;;;9.45;100.00;101916.94;4986307;28;20550;-62
2024/02/19 01:50:36;;;;;;;16.27;3.75;;;;;;;9.42;100.00;101922.28;4965860;28;20107;-62
2024/02/19 01:53:09;;;;;;;13.90;3.15;;;;;;;9.36;100.00;101918.00;4980715;28;20054;-61
2024/02/19 01:55:38;;;;;;;15.98;3.20;;;;;;;9.32;100.00;101917.78;4986671;28;20057;-58
2024/02/19 01:58:06;;;;;;;16.50;4.15;;;;;;;9.27;100.00;101920.66;4987247;28;20058;-61
2024/02/19 02:00:34;;;;;;;10.02;2.60;;;;;;;9.23;100.00;101921.59;4985403;28;20519;-62
2024/02/19 02:03:02;;;;;;;13.77;2.60;;;;;;;9.17;100.00;101916.16;4986766;28;20611;-61
2024/02/19 02:05:30;;;;;;;17.85;2.63;;;;;;;9.12;100.00;101907.16;4986997;28;20046;-65
2024/02/19 02:08:01;;;;;;;13.82;3.10;;;;;;;9.07;100.00;101894.28;4986402;28;20057;-63
2024/02/19 02:10:29;;;;;;;9.88;3.15;;;;;;;9.02;100.00;101901.84;4978362;28;20073;-62
2024/02/19 02:12:56;;;;;;;19.17;3.30;;;;;;;8.98;100.00;101912.69;4978764;28;20049;-60
2024/02/19 02:15:24;;;;;;;16.15;3.22;;;;;;;8.96;100.00;101917.69;4986546;28;20054;-58
2024/02/19 02:17:51;;;;;;;15.77;2.47;;;;;;;8.93;100.00;101892.63;4990055;28;20373;-58
2024/02/19 02:20:18;;;;;;;9.93;2.72;;;;;;;8.90;100.00;101898.75;4986127;28;20046;-59
2024/02/19 02:22:48;;;;;;;16.55;3.10;;;;;;;8.87;100.00;101908.47;4986974;28;20117;-60
2024/02/19 02:25:15;;;;;;;16.77;3.65;;;;;;;8.87;100.00;101900.19;4986161;28;20041;-59
2024/02/19 02:27:43;;;;;;;14.45;3.55;;;;;;;8.85;100.00;101883.13;4986412;28;20042;-59
2024/02/19 02:30:11;;;;;;;14.93;3.95;;;;;;;8.82;100.00;101893.94;4978286;28;20046;-59
2024/02/19 02:32:38;;;;;;;18.30;4.80;;;;;;;8.79;100.00;101880.78;4986929;28;20053;-57
2024/02/19 02:35:06;;;;;;;15.40;3.70;;;;;;;8.75;100.00;101899.06;4985678;28;20504;-61
2024/02/19 02:37:33;;;;;;;10.10;3.33;;;;;;;8.74;100.00;101881.66;4969235;28;20054;-57
2024/02/19 02:40:01;;;;;;;14.02;2.70;;;;;;;8.71;100.00;101885.03;4986250;28;20081;-59
2024/02/19 02:42:28;;;;;;;16.40;3.55;;;;;;;8.69;100.00;101891.97;4986009;28;20428;-59
2024/02/19 02:44:55;;;;;;;15.52;2.58;;;;;;;8.67;100.00;101886.78;4986146;28;20288;-59
2024/02/19 02:47:23;;;;;;;12.95;2.85;;;;;;;8.64;100.00;101879.09;4986088;28;20412;-59
2024/02/19 02:49:50;;;;;;;18.08;3.10;;;;;;;8.63;100.00;101888.50;4985193;28;20042;-59
2024/02/19 02:52:18;;;;;;;9.75;2.97;;;;;;;8.62;100.00;101902.63;4983684;28;20057;-60
2024/02/19 02:54:45;;;;;;;17.65;2.60;;;;;;;8.61;100.00;101896.28;4985465;28;20046;-61
2024/02/19 02:57:13;;;;;;;17.83;5.72;;;;;;;8.62;100.00;101894.34;4985798;28;20076;-60
2024/02/19 02:59:40;;;;;;;10.48;2.40;;;;;;;8.60;100.00;101883.59;4985833;28;20059;-58
2024/02/19 03:02:07;;;;;;;13.80;2.65;;;;;;;8.60;100.00;101875.31;5060594;22;20046;-59
2024/02/19 03:04:35;;;;;;;11.05;2.45;;;;;;;8.59;100.00;101876.44;4985948;28;20062;-59
2024/02/19 03:07:02;;;;;;;12.40;2.60;;;;;;;8.58;100.00;101869.28;4986281;28;20050;-58
2024/02/19 03:09:30;;;;;;;17.00;3.20;;;;;;;8.58;100.00;101885.84;4982965;28;20404;-60
2024/02/19 03:11:59;;;;;;;18.50;3.60;;;;;;;8.57;100.00;101884.22;4986915;28;20084;-61
2024/02/19 03:14:26;;;;;;;17.52;2.92;;;;;;;8.58;100.00;101881.13;4990588;28;20043;-59
2024/02/19 03:16:53;;;;;;;10.65;2.78;;;;;;;8.60;100.00;101893.81;4990053;28;20547;-55
2024/02/19 03:19:21;;;;;;;10.77;2.67;;;;;;;8.58;100.00;101896.88;4988043;28;20416;-59
2024/02/19 03:21:48;;;;;;;12.18;2.70;;;;;;;8.59;100.00;101895.75;4989634;28;20050;-61
2024/02/19 03:24:15;;;;;;;15.35;3.30;;;;;;;8.59;100.00;101893.00;4989433;28;20057;-61
2024/02/19 03:26:43;;;;;;;10.18;1.88;;;;;;;8.60;100.00;101894.66;4989780;28;20062;-62
2024/02/19 03:29:12;;;;;;;22.20;2.67;;;;;;;8.60;100.00;101896.59;4989855;28;20405;-61
2024/02/19 03:31:41;;;;;;;13.88;2.88;;;;;;;8.59;100.00;101895.75;4989723;28;20426;-59
2024/02/19 03:34:09;;;;;;;12.88;2.65;;;;;;;8.57;100.00;101900.78;4990003;28;20049;-61
2024/02/19 03:36:37;;;;;;;18.38;3.20;;;;;;;8.57;100.00;101900.78;4989640;28;20050;-59
2024/02/19 03:39:04;;;;;;;21.27;2.67;;;;;;;8.55;100.00;101903.81;4989350;28;20400;-59
2024/02/19 03:41:32;;;;;;;12.00;2.30;;;;;;;8.53;100.00;101911.59;4989371;28;20685;-59
2024/02/19 03:43:59;;;;;;;25.30;4.68;;;;;;;8.52;100.00;101920.97;4989468;28;20054;-59
2024/02/19 03:46:27;;;;;;;7.70;2.00;;;;;;;8.51;100.00;101913.00;4988762;28;20051;-61
2024/02/19 03:48:54;;;;;;;15.55;3.67;;;;;;;8.49;100.00;101926.31;4989661;28;20046;-59
2024/02/19 03:51:23;;;;;;;15.20;2.88;;;;;;;8.51;100.00;101921.28;4989122;28;20408;-59
2024/02/19 03:53:50;;;;;;;9.13;2.50;;;;;;;8.53;100.00;101932.84;4988352;28;20442;-60
2024/02/19 03:56:18;;;;;;;13.30;2.95;;;;;;;8.54;100.00;101938.09;4989536;28;20058;-60
2024/02/19 03:58:45;;;;;;;14.25;2.40;;;;;;;8.55;100.00;101927.88;4989253;28;20058;-59
2024/02/19 04:01:13;;;;;;;15.63;2.65;;;;;;;8.53;100.00;101928.16;4989037;28;20073;-62
2024/02/19 04:03:41;;;;;;;13.68;3.10;;;;;;;8.52;100.00;101931.22;4989410;28;20523;-59
2024/02/19 04:06:08;;;;;;;9.70;2.22;;;;;;;8.51;100.00;101930.41;4989137;28;20053;-61
2024/02/19 04:08:36;;;;;;;17.02;2.72;;;;;;;8.49;100.00;101923.56;4988954;28;20054;-58
2024/02/19 04:11:04;;;;;;;13.98;2.53;;;;;;;8.48;100.00;101924.66;4989231;28;20065;-61
2024/02/19 04:13:31;;;;;;;9.85;3.17;;;;;;;8.46;100.00;101921.38;4989521;28;20058;-57
2024/02/19 04:15:59;;;;;;;10.73;2.08;;;;;;;8.44;100.00;101918.13;4989100;28;20058;-59
2024/02/19 04:18:26;;;;;;;11.45;2.47;;;;;;;8.41;100.00;101908.50;4988457;28;20049;-61
2024/02/19 04:20:53;;;;;;;14.13;1.92;;;;;;;8.41;100.00;101914.03;4988872;28;20054;-59
2024/02/19 04:23:21;;;;;;;12.05;1.95;;;;;;;8.39;100.00;101919.00;4988326;28;20043;-61
2024/02/19 04:25:48;;;;;;;8.98;2.47;;;;;;;8.38;100.00;101913.81;4988517;28;20042;-59
2024/02/19 04:28:15;;;;;;;9.93;3.47;;;;;;;8.36;100.00;101910.53;4988697;28;20500;-61
2024/02/19 04:30:43;;;;;;;12.88;2.10;;;;;;;8.35;100.00;101908.88;4988347;28;20050;-59
2024/02/19 04:33:11;;;;;;;17.20;3.08;;;;;;;8.34;100.00;101923.81;4989303;28;20548;-59
2024/02/19 04:35:38;;;;;;;16.15;2.97;;;;;;;8.32;100.00;101932.38;4987831;28;20783;-57
2024/02/19 04:38:05;;;;;;;14.70;1.95;;;;;;;8.32;100.00;101932.38;4982601;28;20089;-61
2024/02/19 04:40:33;;;;;;;12.40;2.40;;;;;;;8.32;100.00;101937.06;4988860;28;20057;-60
2024/02/19 04:43:00;;;;;;;20.00;3.60;;;;;;;8.32;100.00;101954.44;4988744;28;20054;-61
2024/02/19 04:45:27;;;;;;;17.85;2.80;;;;;;;8.35;100.00;101950.28;4988073;28;20507;-62
2024/02/19 04:47:55;;;;;;;15.25;2.95;;;;;;;8.37;100.00;101956.31;4988824;28;20046;-61
2024/02/19 04:50:22;;;;;;;17.02;2.33;;;;;;;8.40;100.00;101955.69;4988272;28;20046;-62
2024/02/19 04:52:50;;;;;;;11.80;2.97;;;;;;;8.44;100.00;101962.28;4986995;28;21281;-59
2024/02/19 04:55:17;;;;;;;15.77;2.78;;;;;;;8.46;100.00;101960.84;4988182;28;20995;-61
2024/02/19 04:57:44;;;;;;;15.20;2.38;;;;;;;8.51;100.00;101957.19;4987284;28;20044;-58
2024/02/19 05:00:12;;;;;;;19.35;3.10;;;;;;;8.54;100.00;101956.56;4987948;28;20050;-61
2024/02/19 05:02:40;;;;;;;18.00;4.03;;;;;;;8.56;100.00;101957.09;4988154;28;20095;-61
2024/02/19 05:05:08;;;;;;;12.75;2.45;;;;;;;8.60;100.00;101971.13;4986908;28;20050;-59
2024/02/19 05:07:36;;;;;;;18.73;3.17;;;;;;;8.61;100.00;101970.81;4988324;28;20062;-59
2024/02/19 05:10:04;;;;;;;22.55;4.20;;;;;;;8.62;100.00;101972.44;4987387;28;20061;-59
2024/02/19 05:12:32;;;;;;;19.73;2.90;;;;;;;8.63;100.00;101976.84;4987736;28;20042;-58
2024/02/19 05:15:01;;;;;;;21.15;3.33;;;;;;;8.64;100.00;101981.25;4982440;28;20073;-57
2024/02/19 05:17:29;;;;;;;14.32;2.88;;;;;;;8.68;100.00;101987.00;4988270;28;20050;-60
2024/02/19 05:19:56;;;;;;;22.55;4.45;;;;;;;8.66;100.00;101987.28;4987637;28;20061;-60
2024/02/19 05:22:23;;;;;;;22.05;4.75;;;;;;;8.67;100.00;101988.94;4987430;28;20046;-59
2024/02/19 05:24:51;;;;;;;26.20;4.13;;;;;;;8.68;100.00;101996.09;4985776;28;20043;-58
2024/02/19 05:27:19;;;;;;;22.85;5.45;;;;;;;8.69;100.00;102002.41;4987229;28;20073;-58
2024/02/19 05:29:46;;;;;;;24.13;4.47;;;;;;;8.68;100.00;102000.78;4986916;28;20058;-59
2024/02/19 05:32:14;;;;;;;23.20;4.57;;;;;;;8.68;100.00;101998.84;4986898;28;20046;-59
2024/02/19 05:34:46;;;;;;;27.08;5.35;;;;;;;8.69;100.00;102008.75;4988065;28;20046;-59
2024/02/19 05:37:13;;;;;;;38.42;8.23;;;;;;;8.70;100.00;101998.53;4986497;28;20050;-59
2024/02/19 05:39:42;;;;;;;32.55;6.57;;;;;;;8.70;100.00;102004.88;4987648;28;20098;-61
2024/02/19 05:42:09;;;;;;;31.08;4.88;;;;;;;8.68;100.00;102006.31;4986802;28;20055;-60
2024/02/19 05:44:36;;;;;;;24.92;5.03;;;;;;;8.64;100.00;102003.31;4988238;28;20872;-62
2024/02/19 05:47:04;;;;;;;23.15;5.10;;;;;;;8.61;100.00;102003.94;4986946;28;20046;-61
2024/02/19 05:49:31;;;;;;;40.92;6.65;;;;;;;8.57;100.00;102003.72;4986853;28;20050;-62
2024/02/19 05:51:59;;;;;;;30.75;4.55;;;;;;;8.55;100.00;102013.44;4987093;28;20065;-61
2024/02/19 05:54:26;;;;;;;28.52;6.05;;;;;;;8.53;100.00;102010.13;4985830;28;20053;-62
2024/02/19 05:56:54;;;;;;;22.25;5.45;;;;;;;8.52;100.00;102016.78;4987249;28;20459;-60
2024/02/19 05:59:21;;;;;;;24.70;4.97;;;;;;;8.50;100.00;102013.47;4986182;28;20162;-59
2024/02/19 06:01:49;;;;;;;30.20;6.30;;;;;;;8.48;100.00;102012.97;4986601;28;20058;-61
2024/02/19 06:04:17;;;;;;;20.85;4.93;;;;;;;8.47;100.00;102016.88;4986467;28;20046;-60
2024/02/19 06:06:44;;;;;;;36.83;7.68;;;;;;;8.49;100.00;102014.63;4986823;28;20053;-61
2024/02/19 06:09:12;;;;;;;31.58;6.13;;;;;;;8.51;100.00;102012.38;4987244;28;20046;-62
2024/02/19 06:11:44;;;;;;;33.65;7.60;;;;;;;8.52;100.00;102014.03;4986915;28;20392;-59
2024/02/19 06:14:12;;;;;;;33.40;5.32;;;;;;;8.50;100.00;102019.00;4987172;28;20049;-59
2024/02/19 06:16:39;;;;;;;31.05;5.35;;;;;;;8.47;100.00;102016.88;4987355;28;20425;-61
2024/02/19 06:19:08;;;;;;;29.38;5.63;;;;;;;8.45;100.00;102010.81;4986564;28;20408;-61
2024/02/19 06:21:36;;;;;;;34.75;6.50;;;;;;;8.43;100.00;102015.81;4986955;28;20042;-61
2024/02/19 06:24:03;;;;;;;31.85;7.45;;;;;;;8.40;100.00;102017.25;4986826;28;20538;-61
2024/02/19 06:26:31;;;;;;;37.67;6.50;;;;;;;8.39;100.00;102025.84;4987562;28;20696;-60
2024/02/19 06:28:58;;;;;;;38.80;7.05;;;;;;;8.37;100.00;102022.53;4986923;28;20058;-60
2024/02/19 06:31:27;;;;;;;38.13;6.68;;;;;;;8.33;100.00;102016.81;4987227;28;20042;-60
2024/02/19 06:33:55;;;;;;;43.10;9.52;;;;;;;8.31;100.00;102029.25;4987398;28;20039;-60
2024/02/19 06:36:23;;;;;;;31.67;7.80;;;;;;;8.29;100.00;102031.47;4986926;28;20050;-62
2024/02/19 06:38:50;;;;;;;60.70;8.95;;;;;;;8.26;100.00;102030.09;4986769;28;20127;-60
2024/02/19 06:41:18;;;;;;;34.50;7.63;;;;;;;8.24;100.00;102040.63;4986827;28;20054;-60
2024/02/19 06:43:45;;;;;;;41.45;8.13;;;;;;;8.21;100.00;102032.13;4987369;28;20054;-60
2024/02/19 06:46:14;;;;;;;34.08;7.72;;;;;;;8.20;100.00;102047.03;4987235;28;20797;-60
2024/02/19 06:48:42;;;;;;;35.25;6.55;;;;;;;8.18;100.00;102043.78;4990948;28;20050;-62
2024/02/19 06:51:10;;;;;;;26.42;6.38;;;;;;;8.15;100.00;102042.44;4990575;28;20140;-59
2024/02/19 06:53:37;;;;;;;41.90;7.18;;;;;;;8.15;100.00;102044.38;4990961;28;20049;-60
2024/02/19 06:56:08;;;;;;;41.20;8.23;;;;;;;8.11;100.00;102043.31;4988724;28;20053;-60
2024/02/19 06:58:35;;;;;;;47.45;7.55;;;;;;;8.09;100.00;102035.34;4991332;28;20057;-57
2024/02/19 07:01:04;;;;;;;36.13;8.07;;;;;;;8.08;100.00;102044.72;4991058;28;20089;-58
2024/02/19 07:03:32;;;;;;;39.40;8.23;;;;;;;8.06;100.00;102049.72;4991269;28;20042;-62
2024/02/19 07:05:59;;;;;;;45.97;7.43;;;;;;;8.05;100.00;102052.78;4991714;28;20519;-59
2024/02/19 07:08:27;;;;;;;49.58;8.27;;;;;;;8.03;100.00;102060.50;4990326;28;20057;-59
2024/02/19 07:10:54;;;;;;;49.40;9.10;;;;;;;8.00;100.00;102053.66;4992655;28;20496;-58
2024/02/19 07:13:22;;;;;;;37.60;8.88;;;;;;;7.98;100.00;102055.88;4990822;28;20054;-60
2024/02/19 07:15:49;;;;;;;52.88;8.80;;;;;;;7.96;100.00;102056.19;4990565;28;20583;-57
2024/02/19 07:18:16;;;;;;;47.55;9.55;;;;;;;7.93;100.00;102061.47;4988908;28;20061;-58
2024/02/19 07:20:44;;;;;;;49.80;9.07;;;;;;;7.91;100.00;102059.03;4990226;28;20042;-61
2024/02/19 07:23:11;;;;;;;48.88;7.85;;;;;;;7.90;100.00;102065.66;4990371;28;20050;-57
2024/02/19 07:25:39;;;;;;;39.58;7.90;;;;;;;7.88;100.00;102059.59;4990320;28;20046;-61
2024/02/19 07:28:06;;;;;;;41.45;7.43;;;;;;;7.86;100.00;102069.28;4990923;28;20062;-60
2024/02/19 07:30:35;;;;;;;39.40;7.18;;;;;;;7.84;100.00;102069.56;4987679;28;20406;-60
2024/02/19 07:33:03;;;;;;;48.05;9.02;;;;;;;7.82;100.00;102060.78;5003032;28;20054;-59
2024/02/19 07:35:30;;;;;;;62.88;11.70;;;;;;;7.81;100.00;102070.16;4989609;28;20050;-62
2024/02/19 07:37:58;;;;;;;43.15;7.97;;;;;;;7.80;100.00;102082.31;4990476;28;20065;-59
2024/02/19 07:40:25;;;;;;;53.75;9.02;;;;;;;7.79;100.00;102079.84;4990476;28;20050;-59
2024/02/19 07:42:52;;;;;;;54.72;10.02;;;;;;;7.76;100.00;102081.25;4995528;28;20054;-59
2024/02/19 07:45:20;;;;;;;53.97;9.65;;;;;;;7.74;100.00;102086.25;4990939;28;20054;-59
2024/02/19 07:47:47;;;;;;;47.30;7.28;;;;;;;7.72;100.00;102094.00;4991295;28;20038;-59
2024/02/19 07:50:16;;;;;;;50.42;9.05;;;;;;;7.73;100.00;102090.09;4980382;28;20096;-62
2024/02/19 07:52:43;;;;;;;42.13;8.95;;;;;;;7.71;100.00;102100.59;4989289;28;20382;-62
2024/02/19 07:55:11;;;;;;;47.63;11.35;;;;;;;7.73;100.00;102095.63;4996735;28;20412;-63
2024/02/19 07:57:38;;;;;;;44.80;9.88;;;;;;;7.74;100.00;102096.44;4979623;28;20058;-61
2024/02/19 08:00:06;;;;;;;52.47;9.88;;;;;;;7.76;100.00;102102.47;4987356;28;20046;-61
2024/02/19 08:02:34;;;;;;;58.78;10.15;;;;;;;7.79;100.00;102111.00;4991146;28;20054;-61
2024/02/19 08:05:01;;;;;;;61.08;11.23;;;;;;;7.81;100.00;102116.22;4989613;28;20053;-60
2024/02/19 08:07:29;;;;;;;52.22;8.52;;;;;;;7.82;100.00;102126.94;4988357;28;20135;-57
2024/02/19 08:09:56;;;;;;;72.82;10.57;;;;;;;7.85;100.00;102125.53;4989942;28;20508;-58
2024/02/19 08:12:24;;;;;;;50.92;8.70;;;;;;;7.85;100.00;102131.88;4989181;28;20043;-59
2024/02/19 08:14:51;;;;;;;45.75;8.25;;;;;;;7.87;100.00;102140.69;4989531;28;20051;-59
2024/02/19 08:17:19;;;;;;;47.72;8.38;;;;;;;7.89;100.00;102141.19;4989001;28;20771;-57
2024/02/19 08:19:46;;;;;;;62.40;11.00;;;;;;;7.93;100.00;102149.72;4990143;28;20117;-58
2024/02/19 08:22:13;;;;;;;45.95;8.88;;;;;;;7.94;100.00;102146.66;4985763;28;20055;-59
2024/02/19 08:24:41;;;;;;;47.80;10.38;;;;;;;7.98;100.00;102147.72;4988432;28;20527;-58
2024/02/19 08:27:08;;;;;;;62.35;9.80;;;;;;;8.03;100.00;102138.56;4989813;28;20416;-59
2024/02/19 08:29:35;;;;;;;56.47;9.40;;;;;;;8.07;100.00;102155.34;4989640;28;20084;-59
2024/02/19 08:32:03;;;;;;;47.40;9.00;;;;;;;8.07;100.00;102155.34;4987589;28;20042;-58
2024/02/19 08:34:30;;;;;;;52.47;9.80;;;;;;;8.10;100.00;102154.75;4978324;28;20479;-59
2024/02/19 08:36:58;;;;;;;61.17;9.88;;;;;;;8.13;100.00;102156.94;4988590;28;20054;-58
2024/02/19 08:39:25;;;;;;;46.15;10.40;;;;;;;8.14;100.00;102166.84;4987058;28;20054;-59
2024/02/19 08:41:54;;;;;;;62.25;9.90;;;;;;;8.16;100.00;102175.63;4976005;28;20058;-58
2024/02/19 08:44:21;;;;;;;64.65;11.98;;;;;;;8.19;100.00;102159.31;4989393;28;20057;-54
2024/02/19 08:46:49;;;;;;;59.50;11.30;;;;;;;8.22;100.00;102164.25;4989173;28;20404;-58
2024/02/19 08:49:16;;;;;;;58.40;10.20;;;;;;;8.27;100.00;102179.94;4989085;28;20512;-58
2024/02/19 08:51:44;;;;;;;45.13;10.90;;;;;;;8.28;100.00;102171.41;4989059;28;20050;-59
2024/02/19 08:54:13;;;;;;;40.38;8.65;;;;;;;8.31;100.00;102179.06;4987630;28;20050;-54
2024/02/19 08:56:41;;;;;;;65.90;13.90;;;;;;;8.34;100.00;102177.66;4986227;28;20078;-55
2024/02/19 08:59:08;;;;;;;45.65;9.32;;;;;;;8.34;100.00;102170.19;4975374;28;20626;-57
2024/02/19 09:01:35;;;;;;;59.00;9.80;;;;;;;8.38;100.00;102178.72;4985661;28;20054;-56
2024/02/19 09:04:03;;;;;;;60.60;9.38;;;;;;;8.40;100.00;102182.81;5000021;28;20054;-58
2024/02/19 09:06:30;;;;;;;46.00;10.13;;;;;;;8.42;100.00;102168.72;4980623;28;20047;-56
2024/02/19 09:08:59;;;;;;;64.90;14.27;;;;;;;8.45;100.00;102173.63;4987960;28;20047;-57
2024/02/19 09:11:27;;;;;;;51.10;9.40;;;;;;;8.47;100.00;102176.94;4988092;28;20050;-55
2024/02/19 09:13:54;;;;;;;45.72;10.90;;;;;;;8.49;100.00;102174.72;4988394;28;20046;-59
2024/02/19 09:16:21;;;;;;;56.45;10.07;;;;;;;8.49;100.00;102178.28;4988520;28;20053;-58
2024/02/19 09:18:49;;;;;;;41.92;9.20;;;;;;;8.49;100.00;102186.56;4988303;28;20393;-56
2024/02/19 09:21:16;;;;;;;43.50;8.88;;;;;;;8.49;100.00;102186.56;4982338;28;20725;-58
2024/02/19 09:23:44;;;;;;;44.78;8.15;;;;;;;8.54;100.00;102188.44;4988121;28;20077;-58
2024/02/19 09:26:15;;;;;;;73.85;10.57;;;;;;;8.57;100.00;102198.88;4988240;28;20050;-59
2024/02/19 09:28:44;;;;;;;40.17;7.07;;;;;;;8.61;100.00;102186.13;4988618;28;20046;-58
2024/02/19 09:31:11;;;;;;;45.17;8.80;;;;;;;8.66;100.00;102197.09;4987870;28;20440;-60
2024/02/19 09:33:38;;;;;;;39.63;7.43;;;;;;;8.72;100.00;102197.84;4988207;28;20065;-59
2024/02/19 09:36:11;;;;;;;51.13;9.52;;;;;;;8.75;100.00;102203.59;4988179;28;20042;-59
2024/02/19 09:38:40;;;;;;;33.63;7.32;;;;;;;8.77;100.00;102204.13;4988510;28;20058;-59
2024/02/19 09:41:08;;;;;;;34.10;6.95;;;;;;;8.79;100.00;102210.16;4988576;28;20512;-60
2024/02/19 09:43:35;;;;;;;53.38;10.10;;;;;;;8.83;100.00;102202.94;4982310;28;20633;-59
2024/02/19 09:46:03;;;;;;;34.97;7.68;;;;;;;8.87;100.00;102198.44;4989149;28;20051;-59
2024/02/19 09:48:32;;;;;;;32.70;8.02;;;;;;;8.91;100.00;102207.78;4987939;28;20050;-58
2024/02/19 09:51:00;;;;;;;45.50;9.68;;;;;;;8.95;100.00;102217.13;4988534;28;20058;-58
2024/02/19 09:53:32;;;;;;;50.80;11.20;;;;;;;9.00;100.00;102224.53;4987929;28;20050;-62
2024/02/19 09:56:00;;;;;;;44.75;9.75;;;;;;;9.07;100.00;102225.78;4987044;28;20050;-58
2024/02/19 09:58:28;;;;;;;34.78;8.02;;;;;;;9.17;100.00;102211.81;4987479;28;20038;-57
2024/02/19 10:00:56;;;;;;;38.78;7.00;;;;;;;9.28;100.00;102219.94;4988536;28;20070;-58
2024/02/19 10:03:26;;;;;;;44.88;8.25;;;;;;;9.35;100.00;102209.31;4987809;28;20047;-59
2024/02/19 10:05:53;;;;;;;39.70;8.52;;;;;;;9.39;100.00;102208.44;4987163;28;20053;-55
2024/02/19 10:08:21;;;;;;;52.00;9.70;;;;;;;9.44;100.00;102216.63;4984526;28;20062;-59
2024/02/19 10:10:55;;;;;;;36.10;7.25;;;;;;;9.48;100.00;102203.00;4987516;28;20054;-58
2024/02/19 10:13:23;;;;;;;27.75;6.72;;;;;;;9.52;100.00;102207.66;4975716;28;20070;-56
2024/02/19 10:15:51;;;;;;;40.50;8.38;;;;;;;9.56;100.00;102197.63;4987541;28;20054;-60
2024/02/19 10:18:20;;;;;;;36.28;7.80;;;;;;;9.58;100.00;102187.06;4987091;28;20050;-61
2024/02/19 10:20:50;;;;;;;40.15;7.60;;;;;;;9.57;100.00;102187.38;4987218;28;20049;-57
2024/02/19 10:23:19;;;;;;;47.80;8.20;;;;;;;9.56;100.00;102189.31;4985381;28;20131;-60
2024/02/19 10:25:50;;;;;;;38.80;7.53;;;;;;;9.57;100.00;102188.22;4986572;28;20412;-58
2024/02/19 10:28:22;;;;;;;35.42;7.97;;;;;;;9.62;100.00;102192.81;4981793;28;20050;-59
2024/02/19 10:30:50;;;;;;;58.92;10.32;;;;;;;9.62;100.00;102192.81;4987452;28;20097;-59
2024/02/19 10:33:19;;;;;;;41.25;7.80;;;;;;;9.64;100.00;102191.38;4987397;28;20050;-58
2024/02/19 10:35:50;;;;;;;50.70;9.82;;;;;;;9.66;100.00;102188.34;4984010;28;20057;-55
2024/02/19 10:38:17;;;;;;;48.90;8.98;;;;;;;9.67;100.00;102189.97;4979107;28;20722;-60
2024/02/19 10:40:45;;;;;;;42.00;9.27;;;;;;;9.69;100.00;102198.75;4986646;28;20514;-58
2024/02/19 10:43:13;;;;;;;39.92;9.43;;;;;;;9.70;100.00;102201.25;4987218;28;20060;-56
2024/02/19 10:45:41;;;;;;;37.72;8.60;;;;;;;9.73;100.00;102210.88;4987638;28;20052;-58
2024/02/19 10:48:09;;;;;;;38.65;7.90;;;;;;;9.73;100.00;102210.88;4986264;28;20073;-60
2024/02/19 10:50:36;;;;;;;40.58;7.25;;;;;;;9.74;100.00;102212.53;4986835;28;20669;-59
2024/02/19 10:53:06;;;;;;;55.50;11.73;;;;;;;9.75;100.00;102226.03;4987552;28;21021;-59
2024/02/19 10:55:35;;;;;;;47.42;10.80;;;;;;;9.79;100.00;102232.59;4984800;28;20038;-56
2024/02/19 10:58:13;;;;;;;40.33;7.35;;;;;;;9.85;100.00;102236.09;4983724;28;20046;-57
2024/02/19 11:00:43;;;;;;;39.45;9.30;;;;;;;9.90;100.00;102252.59;4986564;28;20069;-59
2024/02/19 11:03:13;;;;;;;43.13;8.32;;;;;;;9.95;100.00;102258.06;4987098;28;20508;-59
2024/02/19 11:05:43;;;;;;;53.90;9.45;;;;;;;10.00;100.00;102257.97;4980839;28;20054;-60
2024/02/19 11:08:23;;;;;;;51.00;8.73;;;;;;;10.07;100.00;102250.06;4985656;28;20054;-58
2024/02/19 11:10:55;;;;;;;37.33;8.95;;;;;;;10.12;100.00;102241.72;4986348;28;20046;-61
2024/02/19 11:13:26;;;;;;;31.75;7.25;;;;;;;10.18;100.00;102229.44;4986843;28;20050;-58
2024/02/19 11:15:55;;;;;;;49.00;10.35;;;;;;;10.19;100.00;102224.72;4986926;28;20074;-59
2024/02/19 11:18:22;;;;;;;53.95;7.97;;;;;;;10.26;100.00;102230.66;4986584;28;20051;-60
2024/02/19 11:20:50;;;;;;;36.15;9.35;;;;;;;10.33;100.00;102229.13;4986449;28;20051;-59